Terminal Aerodrome Forecast
Issued by NWS

Home | Current Version | Previous Version | Text Only | Print | Product List | Glossary On
Versions: 1 2 3 4 5 6 7 8 9 10 11 12 13 14 15 16 17 18 19 20 21 22 23 24 25 26
000
FTUS43 KDLH 180222 AAA
TAFHIB
TAF AMD
KHIB 180222Z 1802/1824 24004KT P6SM BKN004
      TEMPO 1803/1806 2SM BR
     FM180600 20004KT 1SM BR OVC004
      TEMPO 1806/1809 1/2SM FG
     FM181200 20005KT 1SM BR OVC004
     FM181600 21008KT P6SM OVC012
     FM182100 22007KT 4SM -SN OVC012=

USA.gov is the U.S. government's official web portal to all federal, state and local government web resources and services.